Airways and Terminal Forecast

Significant Meteorological Information


WSPH31 RPLL 230852 
RPHI SIGMET B02 VALID 230852/231252 RPLL-
RPHI MANILA FIR EMBD TS OBS WI N1755 E11933 - N1834 E12102 - N1527 E12119 - N1355 E12344 - N1217 E11952 - N1755 E11933 TOP FL530 MOV W 5KT NC=
 


WSPH31 RPLL 230540 
RPHI SIGMET A01 VALID 230540/230940 RPLL-
RPHI MANILA FIR EMBD TS OBS WI N0752 E12218 - N0404 E11957 - N0730 E11730 - N1326 E11822 - N0752 E12218 TOP FL530 MOV S 10KT NC=

Terminal Aerodrome Forecast

TAF RPLL

231100Z 2312/2418 12005KT 9999 FEW025 SCT100 TX34/2406Z TN27/2321Z TEMPO 2312/2318 25007KT 7000 -TSRA SCT022CB OVC080 TEMPO 2318/2324 VRB03KT FEW025 BKN100=

TAF RPVM

231100Z 2312/2418 05004KT 9999 FEW020 TEMPO 2312/2318 14004KT 6000 TSRA SCT018CB OVC090 TEMPO 2318/2324 VRB02KT -SHRA FEW018CB OVC100=

TAF RPLC

231100Z 2312/2418 14006KT 9999 SCT020 TX33/2406Z TN26/2321Z TEMPO 2312/2318 22008KT 6000 -TSRA FEW015CB SCT020 BKN100=

TAF RPLB

231100Z 2312/2412 16005KT 9999 FEW020 SCT080 TX32/2406Z TN26/2321Z TEMPO 2312/2318 22010KT -TSRA FEW017CB SCT018 BKN080=

TAF RPLI

231100Z 2312/2412 10005KT 9999 FEW018 TEMPO 2312/2316 25008KT 7000 -TSRA SCT017CB BKN080 BECMG 2401/2403 24008KT=

TAF RPVP

231100Z 2312/2412 28006KT 9999 FEW019 BKN080 TEMPO 2312/2318 35010KT 6000 -SHRA SCT019 OVC080 TEMPO 2318/2324 8000 -SHRA SCT017CB BKN080=

TAF RPVD

231100Z 2312/2412 27004KT 9999 FEW015 BKN070 TEMPO 2312/2315 36006KT TEMPO 2315/2321 33005KT 5000 SHRA SCT014CB BKN070 BECMG 2400/2402 09008KT FEW015 SCT070=

TAF RPMR

231100Z 2312/2412 29004KT 9999 FEW018 BKN080 TEMPO 2312/2318 -SHRA SCT017CB BKN080 TEMPO 2318/2324 35007KT BECMG 2400/2402 14009KT=

TAF RPMD

231100Z 2312/2412 33004KT 9999 FEW016 SCT090 TEMPO 2312/2318 7000 -TSRA SCT015CB OVC080 TEMPO 2318/2324 -SHRA FEW015CB BKN090 BECMG 2401/2403 07006KT=

TAF RPMZ

231100Z 2312/2412 27005KT 9999 FEW017 BKN090 TEMPO 2312/2318 33007KT -SHRA SCT016CB BKN090 TEMPO 2318/2324 VRB04KT 6000 -TSRA SCT016CB OVC080=

TAF RPVK

231100Z 2312/2412 21005KT 9999 FEW016 BKN070  TEMPO 2312/2318 -SHRA SCT013CB BKN070 TEMPO 2318/2324 VCSH FEW013CB BKN070=

 

RPLL FORECAST TAKE-OFF CONDITION

TIME

(UTC)

WIND

(dddffKT)

TEMP

(°C)

QNH

(hPa)

TIME

(UTC)

WIND

(dddffKT)

TEMP

(°C)

QNH

(hPa)

1200

25006KT

28.0

1010.0

1600

12005KT

28.0

1011.0

1300

VRB02KT

28.0

1010.0

1700

10004KT

28.0

1010.0

1400

VRB02KT

28.0

1011.0

1800

13005KT

28.0

1010.0

1500

12003KT

28.0

1011.0

1900

VRB03KT

28.0

1010.0

 

ISSUED AT NAIA AMSS-WD/PAGASA-DOST FOR 1100UTC 23 JUNE 2024

PREPARED BY:  JRAB

CHECKED BY:   SSDH

We always find ways to improve our weather products and services. Click Here to get started with our short survey. Your Feedback is important to us.